CheckWX is a tool to help pilots better visualize weather data.  It is not intended as a substitute for an official pre-flight weather briefing.

13:11:06 UTC

SCQP TAF
Temuco Airport
Temuco, Switzerland
TAF SCQP 171011Z 1712/1812 35010KT 9999 SCT020 BKN035 TX19/1718Z TN08/1810Z TEMPO 1715/1719 28010KT 8000 -SHRA BECMG 1719/1721 26010KT FEW020 SCT040 BECMG 1801/1803 VRB02KT 2000 BR OVC003 BECMG 1809/1811 17004KT 7000 9999 BKN010

Nov-17@
12:00 UTC

Nov-17 @ 12:00 UTC

Nov-17@
19:00 UTC

Nov-17 @ 19:00 UTC

TAF SCQP 171011Z 1712/1812 35010KT 9999 SCT020 BKN035 TX19/1718Z TN08/1810Z
Wind
  • 350° at 10 KTS
Cloud Levels
  • Scattered at 2,000' AGL
  • Broken at 3,500' AGL

Nov-17@
15:00 UTC

Nov-17 @ 15:00 UTC

Nov-17@
19:00 UTC

Nov-17 @ 19:00 UTC

TEMPO 1715/1719 28010KT 8000 -SHRA

Temporary

Temporary Changes expected for less than half the time period

Wind
  • 280° at 10 KTS
Conditions
Light Rain

Nov-17@
19:00 UTC

Nov-17 @ 19:00 UTC

Nov-18@
01:00 UTC

Nov-18 @ 01:00 UTC

BECMG 1719/1721 26010KT FEW020 SCT040

Becoming

Becoming Conditions expected by Sun, Nov 17, 2019 @ 21:00 UTC

Wind
  • 260° at 10 KTS
Cloud Levels
  • Few at 2,000' AGL
  • Scattered at 4,000' AGL

Nov-18@
01:00 UTC

Nov-18 @ 01:00 UTC

Nov-18@
09:00 UTC

Nov-18 @ 09:00 UTC

BECMG 1801/1803 VRB02KT 2000 BR OVC003

Becoming

Becoming Conditions expected by Mon, Nov 18, 2019 @ 03:00 UTC

Wind
  • Variable at 2 KTS
Conditions
Mist
Cloud Levels
  • Overcast at 300' AGL

Nov-18@
09:00 UTC

Nov-18 @ 09:00 UTC

Nov-18@
12:00 UTC

Nov-18 @ 12:00 UTC

BECMG 1809/1811 17004KT 7000 9999 BKN010

Becoming

Becoming Conditions expected by Mon, Nov 18, 2019 @ 11:00 UTC

Wind
  • 170° at 4 KTS
Conditions
Mist
Cloud Levels
  • Broken at 1,000' AGL